Terminal Aerodrome Forecast
Issued by NWS

Current Version | Previous Version | Text Only | Print | Product List | Glossary On
Versions: 1 2 3 4 5 6 7 8 9 10 11 12 13 14 15 16 17 18 19 20 21 22 23 24 25
851
FTUS41 KOKX 230531
TAFSWF
TAF
KSWF 230531Z 2306/2412 VRB05KT P6SM SCT250
     FM231700 13006KT P6SM BKN250
     FM232200 23007KT P6SM BKN250
     FM240100 VRB03KT P6SM BKN200
      AMD NOT SKED=

USA.gov is the U.S. government's official web portal to all federal, state and local government web resources and services.